sensor_id;sensor_type;location;lat;lon;timestamp;P1;durP1;ratioP1;P2;durP2;ratioP2
7501;SDS011;3792;47.740;7.606;2022-12-07T00:01:27;15.07;;;11.00;;
7501;SDS011;3792;47.740;7.606;2022-12-07T00:03:56;13.53;;;9.73;;
7501;SDS011;3792;47.740;7.606;2022-12-07T00:06:31;13.47;;;10.60;;
7501;SDS011;3792;47.740;7.606;2022-12-07T00:08:58;14.70;;;9.93;;
7501;SDS011;3792;47.740;7.606;2022-12-07T00:11:25;12.67;;;9.97;;
7501;SDS011;3792;47.740;7.606;2022-12-07T00:13:53;15.70;;;11.73;;
7501;SDS011;3792;47.740;7.606;2022-12-07T00:16:22;14.07;;;10.77;;
7501;SDS011;3792;47.740;7.606;2022-12-07T00:18:51;16.23;;;11.97;;
7501;SDS011;3792;47.740;7.606;2022-12-07T00:21:19;16.20;;;11.47;;
7501;SDS011;3792;47.740;7.606;2022-12-07T00:23:49;16.07;;;11.33;;
7501;SDS011;3792;47.740;7.606;2022-12-07T00:26:18;14.27;;;11.13;;
7501;SDS011;3792;47.740;7.606;2022-12-07T00:28:46;17.53;;;12.23;;
7501;SDS011;3792;47.740;7.606;2022-12-07T00:31:15;16.50;;;11.87;;
7501;SDS011;3792;47.740;7.606;2022-12-07T00:33:43;17.70;;;11.47;;
7501;SDS011;3792;47.740;7.606;2022-12-07T00:36:14;17.73;;;12.77;;
7501;SDS011;3792;47.740;7.606;2022-12-07T00:38:43;17.43;;;13.33;;
7501;SDS011;3792;47.740;7.606;2022-12-07T00:41:12;15.97;;;12.10;;
7501;SDS011;3792;47.740;7.606;2022-12-07T00:43:40;18.17;;;13.07;;
7501;SDS011;3792;47.740;7.606;2022-12-07T00:46:09;19.67;;;13.57;;
7501;SDS011;3792;47.740;7.606;2022-12-07T00:48:36;19.67;;;13.30;;
7501;SDS011;3792;47.740;7.606;2022-12-07T00:51:04;20.70;;;13.50;;
7501;SDS011;3792;47.740;7.606;2022-12-07T00:53:33;21.07;;;13.60;;
7501;SDS011;3792;47.740;7.606;2022-12-07T00:56:04;17.87;;;13.10;;
7501;SDS011;3792;47.740;7.606;2022-12-07T00:58:33;19.87;;;13.00;;
7501;SDS011;3792;47.740;7.606;2022-12-07T01:01:00;19.07;;;12.40;;
7501;SDS011;3792;47.740;7.606;2022-12-07T01:03:28;19.27;;;13.13;;
7501;SDS011;3792;47.740;7.606;2022-12-07T01:05:55;18.50;;;13.37;;
7501;SDS011;3792;47.740;7.606;2022-12-07T01:08:23;18.87;;;13.17;;
7501;SDS011;3792;47.740;7.606;2022-12-07T01:10:57;16.43;;;11.97;;
7501;SDS011;3792;47.740;7.606;2022-12-07T01:13:25;22.13;;;13.30;;
7501;SDS011;3792;47.740;7.606;2022-12-07T01:15:56;19.20;;;13.93;;
7501;SDS011;3792;47.740;7.606;2022-12-07T01:18:25;18.87;;;13.03;;
7501;SDS011;3792;47.740;7.606;2022-12-07T01:20:59;20.17;;;13.27;;
7501;SDS011;3792;47.740;7.606;2022-12-07T01:23:27;21.00;;;13.63;;
7501;SDS011;3792;47.740;7.606;2022-12-07T01:25:55;19.20;;;13.17;;
7501;SDS011;3792;47.740;7.606;2022-12-07T01:28:23;22.27;;;13.90;;
7501;SDS011;3792;47.740;7.606;2022-12-07T01:30:59;19.13;;;13.13;;
7501;SDS011;3792;47.740;7.606;2022-12-07T01:33:27;22.00;;;14.13;;
7501;SDS011;3792;47.740;7.606;2022-12-07T01:35:55;25.30;;;14.63;;
7501;SDS011;3792;47.740;7.606;2022-12-07T01:38:27;20.37;;;14.70;;
7501;SDS011;3792;47.740;7.606;2022-12-07T01:40:55;19.03;;;13.20;;
7501;SDS011;3792;47.740;7.606;2022-12-07T01:43:23;20.20;;;13.57;;
7501;SDS011;3792;47.740;7.606;2022-12-07T01:45:52;21.20;;;14.23;;
7501;SDS011;3792;47.740;7.606;2022-12-07T01:48:21;17.33;;;12.93;;
7501;SDS011;3792;47.740;7.606;2022-12-07T01:50:51;20.53;;;13.67;;
7501;SDS011;3792;47.740;7.606;2022-12-07T01:53:21;21.07;;;14.13;;
7501;SDS011;3792;47.740;7.606;2022-12-07T01:55:52;18.93;;;13.97;;
7501;SDS011;3792;47.740;7.606;2022-12-07T01:58:21;22.20;;;14.83;;
7501;SDS011;3792;47.740;7.606;2022-12-07T02:00:49;21.57;;;13.67;;
7501;SDS011;3792;47.740;7.606;2022-12-07T02:03:18;20.37;;;13.53;;
7501;SDS011;3792;47.740;7.606;2022-12-07T02:05:49;23.73;;;14.07;;
7501;SDS011;3792;47.740;7.606;2022-12-07T02:08:17;21.67;;;14.80;;
7501;SDS011;3792;47.740;7.606;2022-12-07T02:10:45;19.97;;;13.83;;
7501;SDS011;3792;47.740;7.606;2022-12-07T02:13:12;22.90;;;15.37;;
7501;SDS011;3792;47.740;7.606;2022-12-07T02:15:45;23.23;;;14.80;;
7501;SDS011;3792;47.740;7.606;2022-12-07T02:18:25;20.60;;;15.03;;
7501;SDS011;3792;47.740;7.606;2022-12-07T02:21:03;21.50;;;15.57;;
7501;SDS011;3792;47.740;7.606;2022-12-07T02:23:40;19.87;;;14.33;;
7501;SDS011;3792;47.740;7.606;2022-12-07T02:26:24;23.07;;;15.03;;
7501;SDS011;3792;47.740;7.606;2022-12-07T02:29:24;22.23;;;15.33;;
7501;SDS011;3792;47.740;7.606;2022-12-07T02:31:56;22.33;;;15.07;;
7501;SDS011;3792;47.740;7.606;2022-12-07T02:34:31;21.67;;;14.23;;
7501;SDS011;3792;47.740;7.606;2022-12-07T02:37:09;22.83;;;15.43;;
7501;SDS011;3792;47.740;7.606;2022-12-07T02:39:44;21.73;;;14.97;;
7501;SDS011;3792;47.740;7.606;2022-12-07T02:42:17;23.63;;;15.63;;
7501;SDS011;3792;47.740;7.606;2022-12-07T02:44:51;23.97;;;15.70;;
7501;SDS011;3792;47.740;7.606;2022-12-07T02:47:19;26.17;;;15.30;;
7501;SDS011;3792;47.740;7.606;2022-12-07T02:49:49;22.07;;;15.17;;
7501;SDS011;3792;47.740;7.606;2022-12-07T02:52:17;23.67;;;16.40;;
7501;SDS011;3792;47.740;7.606;2022-12-07T02:54:44;25.00;;;16.67;;
7501;SDS011;3792;47.740;7.606;2022-12-07T02:57:21;27.37;;;17.80;;
7501;SDS011;3792;47.740;7.606;2022-12-07T03:00:03;26.37;;;16.73;;
7501;SDS011;3792;47.740;7.606;2022-12-07T03:02:38;25.53;;;16.37;;
7501;SDS011;3792;47.740;7.606;2022-12-07T03:05:15;23.83;;;16.10;;
7501;SDS011;3792;47.740;7.606;2022-12-07T03:08:09;24.23;;;15.67;;
7501;SDS011;3792;47.740;7.606;2022-12-07T03:10:43;23.77;;;16.17;;
7501;SDS011;3792;47.740;7.606;2022-12-07T03:13:22;25.17;;;16.10;;
7501;SDS011;3792;47.740;7.606;2022-12-07T03:15:55;24.10;;;16.17;;
7501;SDS011;3792;47.740;7.606;2022-12-07T03:18:26;27.00;;;17.47;;
7501;SDS011;3792;47.740;7.606;2022-12-07T03:20:57;26.67;;;17.07;;
7501;SDS011;3792;47.740;7.606;2022-12-07T03:23:28;25.60;;;16.93;;
7501;SDS011;3792;47.740;7.606;2022-12-07T03:25:58;24.87;;;16.87;;
7501;SDS011;3792;47.740;7.606;2022-12-07T03:28:28;25.23;;;16.80;;
7501;SDS011;3792;47.740;7.606;2022-12-07T03:31:01;23.90;;;14.37;;
7501;SDS011;3792;47.740;7.606;2022-12-07T03:33:39;22.83;;;13.67;;
7501;SDS011;3792;47.740;7.606;2022-12-07T03:36:09;14.97;;;9.30;;
7501;SDS011;3792;47.740;7.606;2022-12-07T03:38:42;12.77;;;8.37;;
7501;SDS011;3792;47.740;7.606;2022-12-07T03:41:14;11.37;;;8.60;;
7501;SDS011;3792;47.740;7.606;2022-12-07T03:43:45;11.30;;;8.50;;
7501;SDS011;3792;47.740;7.606;2022-12-07T03:46:17;13.77;;;9.17;;
7501;SDS011;3792;47.740;7.606;2022-12-07T03:48:54;11.53;;;7.73;;
7501;SDS011;3792;47.740;7.606;2022-12-07T03:51:28;11.33;;;7.40;;
7501;SDS011;3792;47.740;7.606;2022-12-07T03:54:02;11.67;;;7.27;;
7501;SDS011;3792;47.740;7.606;2022-12-07T03:56:37;9.57;;;6.43;;
7501;SDS011;3792;47.740;7.606;2022-12-07T03:59:05;10.67;;;7.40;;
7501;SDS011;3792;47.740;7.606;2022-12-07T04:01:34;13.10;;;6.60;;
7501;SDS011;3792;47.740;7.606;2022-12-07T04:04:01;8.80;;;6.23;;
7501;SDS011;3792;47.740;7.606;2022-12-07T04:06:28;7.53;;;5.90;;
7501;SDS011;3792;47.740;7.606;2022-12-07T04:08:55;8.47;;;5.60;;
7501;SDS011;3792;47.740;7.606;2022-12-07T04:11:22;9.17;;;5.87;;
7501;SDS011;3792;47.740;7.606;2022-12-07T04:13:49;7.10;;;5.90;;
7501;SDS011;3792;47.740;7.606;2022-12-07T04:16:35;7.87;;;6.37;;
7501;SDS011;3792;47.740;7.606;2022-12-07T04:19:02;8.03;;;5.70;;
7501;SDS011;3792;47.740;7.606;2022-12-07T04:21:29;7.83;;;5.33;;
7501;SDS011;3792;47.740;7.606;2022-12-07T04:23:56;7.17;;;5.67;;
7501;SDS011;3792;47.740;7.606;2022-12-07T04:26:23;9.50;;;6.43;;
7501;SDS011;3792;47.740;7.606;2022-12-07T04:28:51;6.37;;;4.97;;
7501;SDS011;3792;47.740;7.606;2022-12-07T04:31:18;7.33;;;5.30;;
7501;SDS011;3792;47.740;7.606;2022-12-07T04:33:46;7.17;;;5.00;;
7501;SDS011;3792;47.740;7.606;2022-12-07T04:36:13;6.97;;;4.53;;
7501;SDS011;3792;47.740;7.606;2022-12-07T04:38:40;6.93;;;4.80;;
7501;SDS011;3792;47.740;7.606;2022-12-07T04:41:08;5.33;;;4.27;;
7501;SDS011;3792;47.740;7.606;2022-12-07T04:43:36;5.03;;;4.37;;
7501;SDS011;3792;47.740;7.606;2022-12-07T04:46:03;4.33;;;3.90;;
7501;SDS011;3792;47.740;7.606;2022-12-07T04:48:30;5.50;;;3.93;;
7501;SDS011;3792;47.740;7.606;2022-12-07T04:50:59;5.17;;;4.07;;
7501;SDS011;3792;47.740;7.606;2022-12-07T04:53:26;7.23;;;4.03;;
7501;SDS011;3792;47.740;7.606;2022-12-07T04:55:53;4.40;;;3.90;;
7501;SDS011;3792;47.740;7.606;2022-12-07T04:58:20;5.20;;;4.07;;
7501;SDS011;3792;47.740;7.606;2022-12-07T05:00:47;6.87;;;4.90;;
7501;SDS011;3792;47.740;7.606;2022-12-07T05:03:14;5.77;;;3.80;;
7501;SDS011;3792;47.740;7.606;2022-12-07T05:05:41;6.30;;;4.20;;
7501;SDS011;3792;47.740;7.606;2022-12-07T05:08:09;6.67;;;4.23;;
7501;SDS011;3792;47.740;7.606;2022-12-07T05:10:36;5.30;;;4.37;;
7501;SDS011;3792;47.740;7.606;2022-12-07T05:13:04;7.57;;;5.27;;
7501;SDS011;3792;47.740;7.606;2022-12-07T05:15:31;11.63;;;7.73;;
7501;SDS011;3792;47.740;7.606;2022-12-07T05:17:58;14.23;;;9.37;;
7501;SDS011;3792;47.740;7.606;2022-12-07T05:20:25;10.80;;;7.87;;
7501;SDS011;3792;47.740;7.606;2022-12-07T05:22:52;13.67;;;8.13;;
7501;SDS011;3792;47.740;7.606;2022-12-07T05:25:20;14.47;;;7.97;;
7501;SDS011;3792;47.740;7.606;2022-12-07T05:27:47;20.00;;;11.90;;
7501;SDS011;3792;47.740;7.606;2022-12-07T05:30:15;14.37;;;9.53;;
7501;SDS011;3792;47.740;7.606;2022-12-07T05:32:42;12.77;;;9.30;;
7501;SDS011;3792;47.740;7.606;2022-12-07T05:35:09;11.67;;;9.43;;
7501;SDS011;3792;47.740;7.606;2022-12-07T05:37:36;22.07;;;13.90;;
7501;SDS011;3792;47.740;7.606;2022-12-07T05:40:04;18.33;;;12.90;;
7501;SDS011;3792;47.740;7.606;2022-12-07T05:42:33;9.30;;;7.07;;
7501;SDS011;3792;47.740;7.606;2022-12-07T05:45:00;14.10;;;9.73;;
7501;SDS011;3792;47.740;7.606;2022-12-07T05:47:27;10.00;;;7.83;;
7501;SDS011;3792;47.740;7.606;2022-12-07T05:49:54;9.87;;;7.60;;
7501;SDS011;3792;47.740;7.606;2022-12-07T05:52:22;11.40;;;8.47;;
7501;SDS011;3792;47.740;7.606;2022-12-07T05:54:49;11.40;;;8.87;;
7501;SDS011;3792;47.740;7.606;2022-12-07T05:57:16;6.87;;;5.43;;
7501;SDS011;3792;47.740;7.606;2022-12-07T05:59:44;5.23;;;4.33;;
7501;SDS011;3792;47.740;7.606;2022-12-07T06:02:11;4.83;;;4.33;;
7501;SDS011;3792;47.740;7.606;2022-12-07T06:04:40;6.83;;;5.30;;
7501;SDS011;3792;47.740;7.606;2022-12-07T06:07:08;6.37;;;4.60;;
7501;SDS011;3792;47.740;7.606;2022-12-07T06:09:36;6.43;;;5.00;;
7501;SDS011;3792;47.740;7.606;2022-12-07T06:12:04;20.13;;;15.63;;
7501;SDS011;3792;47.740;7.606;2022-12-07T06:14:50;7.80;;;6.70;;
7501;SDS011;3792;47.740;7.606;2022-12-07T06:17:18;6.90;;;5.20;;
7501;SDS011;3792;47.740;7.606;2022-12-07T06:19:45;5.80;;;4.10;;
7501;SDS011;3792;47.740;7.606;2022-12-07T06:22:12;6.23;;;4.30;;
7501;SDS011;3792;47.740;7.606;2022-12-07T06:24:39;25.87;;;17.90;;
7501;SDS011;3792;47.740;7.606;2022-12-07T06:27:06;13.87;;;8.63;;
7501;SDS011;3792;47.740;7.606;2022-12-07T06:29:34;6.97;;;6.00;;
7501;SDS011;3792;47.740;7.606;2022-12-07T06:32:03;7.67;;;6.20;;
7501;SDS011;3792;47.740;7.606;2022-12-07T06:34:30;7.23;;;5.10;;
7501;SDS011;3792;47.740;7.606;2022-12-07T06:36:57;8.03;;;6.03;;
7501;SDS011;3792;47.740;7.606;2022-12-07T06:39:25;8.20;;;4.93;;
7501;SDS011;3792;47.740;7.606;2022-12-07T06:41:53;6.93;;;4.70;;
7501;SDS011;3792;47.740;7.606;2022-12-07T06:44:21;6.43;;;4.63;;
7501;SDS011;3792;47.740;7.606;2022-12-07T06:46:49;8.43;;;5.10;;
7501;SDS011;3792;47.740;7.606;2022-12-07T06:49:17;9.80;;;5.17;;
7501;SDS011;3792;47.740;7.606;2022-12-07T06:51:45;5.90;;;4.43;;
7501;SDS011;3792;47.740;7.606;2022-12-07T06:54:12;7.63;;;5.37;;
7501;SDS011;3792;47.740;7.606;2022-12-07T06:56:41;20.13;;;9.83;;
7501;SDS011;3792;47.740;7.606;2022-12-07T06:59:08;62.10;;;24.33;;
7501;SDS011;3792;47.740;7.606;2022-12-07T07:01:35;34.50;;;16.23;;
7501;SDS011;3792;47.740;7.606;2022-12-07T07:04:03;12.87;;;8.77;;
7501;SDS011;3792;47.740;7.606;2022-12-07T07:06:32;10.83;;;7.70;;
7501;SDS011;3792;47.740;7.606;2022-12-07T07:08:59;8.40;;;7.07;;
7501;SDS011;3792;47.740;7.606;2022-12-07T07:11:26;7.67;;;5.60;;
7501;SDS011;3792;47.740;7.606;2022-12-07T07:13:54;7.43;;;5.00;;
7501;SDS011;3792;47.740;7.606;2022-12-07T07:16:27;8.23;;;4.80;;
7501;SDS011;3792;47.740;7.606;2022-12-07T07:18:54;8.13;;;5.30;;
7501;SDS011;3792;47.740;7.606;2022-12-07T07:21:21;6.53;;;4.40;;
7501;SDS011;3792;47.740;7.606;2022-12-07T07:23:50;6.10;;;5.13;;
7501;SDS011;3792;47.740;7.606;2022-12-07T07:26:17;10.13;;;5.80;;
7501;SDS011;3792;47.740;7.606;2022-12-07T07:28:44;8.23;;;5.73;;
7501;SDS011;3792;47.740;7.606;2022-12-07T07:31:11;6.77;;;5.80;;
7501;SDS011;3792;47.740;7.606;2022-12-07T07:33:38;9.03;;;6.20;;
7501;SDS011;3792;47.740;7.606;2022-12-07T07:36:05;7.90;;;5.47;;
7501;SDS011;3792;47.740;7.606;2022-12-07T07:38:33;9.40;;;5.60;;
7501;SDS011;3792;47.740;7.606;2022-12-07T07:41:01;6.73;;;5.33;;
7501;SDS011;3792;47.740;7.606;2022-12-07T07:43:28;7.93;;;6.00;;
7501;SDS011;3792;47.740;7.606;2022-12-07T07:45:55;9.67;;;6.70;;
7501;SDS011;3792;47.740;7.606;2022-12-07T07:48:22;13.23;;;6.77;;
7501;SDS011;3792;47.740;7.606;2022-12-07T07:50:50;14.07;;;7.30;;
7501;SDS011;3792;47.740;7.606;2022-12-07T07:53:17;10.57;;;6.87;;
7501;SDS011;3792;47.740;7.606;2022-12-07T07:55:49;10.97;;;8.20;;
7501;SDS011;3792;47.740;7.606;2022-12-07T07:58:20;16.43;;;10.23;;
7501;SDS011;3792;47.740;7.606;2022-12-07T08:00:47;18.03;;;11.17;;
7501;SDS011;3792;47.740;7.606;2022-12-07T08:03:14;17.13;;;11.47;;
7501;SDS011;3792;47.740;7.606;2022-12-07T08:05:41;19.73;;;11.97;;
7501;SDS011;3792;47.740;7.606;2022-12-07T08:08:08;16.30;;;11.73;;
7501;SDS011;3792;47.740;7.606;2022-12-07T08:10:35;14.87;;;9.77;;
7501;SDS011;3792;47.740;7.606;2022-12-07T08:13:02;17.37;;;11.83;;
7501;SDS011;3792;47.740;7.606;2022-12-07T08:15:40;18.83;;;14.33;;
7501;SDS011;3792;47.740;7.606;2022-12-07T08:18:09;20.87;;;15.03;;
7501;SDS011;3792;47.740;7.606;2022-12-07T08:20:36;21.60;;;12.20;;
7501;SDS011;3792;47.740;7.606;2022-12-07T08:23:04;18.80;;;11.23;;
7501;SDS011;3792;47.740;7.606;2022-12-07T08:25:32;23.87;;;15.20;;
7501;SDS011;3792;47.740;7.606;2022-12-07T08:27:59;21.43;;;13.00;;
7501;SDS011;3792;47.740;7.606;2022-12-07T08:30:27;21.83;;;13.47;;
7501;SDS011;3792;47.740;7.606;2022-12-07T08:32:56;20.40;;;13.43;;
7501;SDS011;3792;47.740;7.606;2022-12-07T08:35:23;24.03;;;14.90;;
7501;SDS011;3792;47.740;7.606;2022-12-07T08:37:51;21.57;;;14.57;;
7501;SDS011;3792;47.740;7.606;2022-12-07T08:40:18;19.50;;;14.40;;
7501;SDS011;3792;47.740;7.606;2022-12-07T08:42:48;22.40;;;14.93;;
7501;SDS011;3792;47.740;7.606;2022-12-07T08:45:15;21.47;;;13.27;;
7501;SDS011;3792;47.740;7.606;2022-12-07T08:47:44;16.77;;;11.33;;
7501;SDS011;3792;47.740;7.606;2022-12-07T08:50:16;18.47;;;11.13;;
7501;SDS011;3792;47.740;7.606;2022-12-07T08:52:43;15.33;;;10.67;;
7501;SDS011;3792;47.740;7.606;2022-12-07T08:55:14;18.13;;;12.47;;
7501;SDS011;3792;47.740;7.606;2022-12-07T08:57:41;23.40;;;14.47;;
7501;SDS011;3792;47.740;7.606;2022-12-07T09:00:09;23.67;;;14.10;;
7501;SDS011;3792;47.740;7.606;2022-12-07T09:02:37;22.33;;;14.23;;
7501;SDS011;3792;47.740;7.606;2022-12-07T09:05:05;21.47;;;14.93;;
7501;SDS011;3792;47.740;7.606;2022-12-07T09:07:34;21.07;;;14.40;;
7501;SDS011;3792;47.740;7.606;2022-12-07T09:10:02;20.20;;;13.77;;
7501;SDS011;3792;47.740;7.606;2022-12-07T09:12:30;22.27;;;13.67;;
7501;SDS011;3792;47.740;7.606;2022-12-07T09:14:57;22.03;;;14.30;;
7501;SDS011;3792;47.740;7.606;2022-12-07T09:17:25;22.63;;;14.67;;
7501;SDS011;3792;47.740;7.606;2022-12-07T09:19:53;25.83;;;17.27;;
7501;SDS011;3792;47.740;7.606;2022-12-07T09:22:20;18.83;;;12.93;;
7501;SDS011;3792;47.740;7.606;2022-12-07T09:24:48;20.20;;;13.23;;
7501;SDS011;3792;47.740;7.606;2022-12-07T09:27:15;18.53;;;12.37;;
7501;SDS011;3792;47.740;7.606;2022-12-07T09:29:43;18.53;;;12.90;;
7501;SDS011;3792;47.740;7.606;2022-12-07T09:32:10;18.93;;;11.83;;
7501;SDS011;3792;47.740;7.606;2022-12-07T09:34:38;16.13;;;12.10;;
7501;SDS011;3792;47.740;7.606;2022-12-07T09:37:05;20.13;;;12.37;;
7501;SDS011;3792;47.740;7.606;2022-12-07T09:39:32;16.73;;;11.97;;
7501;SDS011;3792;47.740;7.606;2022-12-07T09:42:03;22.93;;;14.40;;
7501;SDS011;3792;47.740;7.606;2022-12-07T09:44:31;20.13;;;13.00;;
7501;SDS011;3792;47.740;7.606;2022-12-07T09:46:58;22.50;;;14.43;;
7501;SDS011;3792;47.740;7.606;2022-12-07T09:49:27;19.50;;;12.57;;
7501;SDS011;3792;47.740;7.606;2022-12-07T09:52:00;17.90;;;12.47;;
7501;SDS011;3792;47.740;7.606;2022-12-07T09:54:29;18.70;;;12.27;;
7501;SDS011;3792;47.740;7.606;2022-12-07T09:56:57;20.43;;;13.67;;
7501;SDS011;3792;47.740;7.606;2022-12-07T09:59:26;19.20;;;12.87;;
7501;SDS011;3792;47.740;7.606;2022-12-07T10:01:53;17.13;;;11.87;;
7501;SDS011;3792;47.740;7.606;2022-12-07T10:04:22;14.03;;;10.57;;
7501;SDS011;3792;47.740;7.606;2022-12-07T10:06:51;16.90;;;11.70;;
7501;SDS011;3792;47.740;7.606;2022-12-07T10:09:19;14.90;;;11.60;;
7501;SDS011;3792;47.740;7.606;2022-12-07T10:12:04;16.27;;;12.00;;
7501;SDS011;3792;47.740;7.606;2022-12-07T10:14:36;15.37;;;11.67;;
7501;SDS011;3792;47.740;7.606;2022-12-07T10:17:17;13.97;;;10.57;;
7501;SDS011;3792;47.740;7.606;2022-12-07T10:20:08;17.27;;;11.67;;
7501;SDS011;3792;47.740;7.606;2022-12-07T10:22:44;14.33;;;11.17;;
7501;SDS011;3792;47.740;7.606;2022-12-07T10:25:21;14.70;;;11.23;;
7501;SDS011;3792;47.740;7.606;2022-12-07T10:28:01;13.67;;;11.37;;
7501;SDS011;3792;47.740;7.606;2022-12-07T10:30:55;15.03;;;10.70;;
7501;SDS011;3792;47.740;7.606;2022-12-07T10:33:33;11.63;;;9.47;;
7501;SDS011;3792;47.740;7.606;2022-12-07T10:36:15;17.27;;;11.63;;
7501;SDS011;3792;47.740;7.606;2022-12-07T10:38:44;16.57;;;12.27;;
7501;SDS011;3792;47.740;7.606;2022-12-07T10:41:13;15.17;;;11.57;;
7501;SDS011;3792;47.740;7.606;2022-12-07T10:43:46;13.60;;;11.27;;
7501;SDS011;3792;47.740;7.606;2022-12-07T10:49:29;15.07;;;11.20;;
7501;SDS011;3792;47.740;7.606;2022-12-07T10:52:19;11.93;;;10.13;;
7501;SDS011;3792;47.740;7.606;2022-12-07T10:55:08;13.40;;;10.70;;
7501;SDS011;3792;47.740;7.606;2022-12-07T10:57:47;14.40;;;11.07;;
7501;SDS011;3792;47.740;7.606;2022-12-07T11:00:28;12.77;;;10.53;;
7501;SDS011;3792;47.740;7.606;2022-12-07T11:03:14;16.00;;;12.27;;
7501;SDS011;3792;47.740;7.606;2022-12-07T11:06:05;13.77;;;11.03;;
7501;SDS011;3792;47.740;7.606;2022-12-07T11:08:44;11.20;;;9.40;;
7501;SDS011;3792;47.740;7.606;2022-12-07T11:11:22;13.67;;;9.40;;
7501;SDS011;3792;47.740;7.606;2022-12-07T11:13:55;11.20;;;8.63;;
7501;SDS011;3792;47.740;7.606;2022-12-07T11:16:39;10.13;;;7.93;;
7501;SDS011;3792;47.740;7.606;2022-12-07T11:19:39;12.53;;;9.57;;
7501;SDS011;3792;47.740;7.606;2022-12-07T11:22:23;9.87;;;8.87;;
7501;SDS011;3792;47.740;7.606;2022-12-07T11:25:00;11.00;;;9.03;;
7501;SDS011;3792;47.740;7.606;2022-12-07T11:27:43;12.03;;;9.30;;
7501;SDS011;3792;47.740;7.606;2022-12-07T11:30:19;14.80;;;10.27;;
7501;SDS011;3792;47.740;7.606;2022-12-07T11:32:55;10.93;;;8.97;;
7501;SDS011;3792;47.740;7.606;2022-12-07T11:35:34;10.87;;;9.37;;
7501;SDS011;3792;47.740;7.606;2022-12-07T11:38:11;14.43;;;9.80;;
7501;SDS011;3792;47.740;7.606;2022-12-07T11:40:41;10.37;;;9.23;;
7501;SDS011;3792;47.740;7.606;2022-12-07T11:43:14;12.00;;;9.43;;
7501;SDS011;3792;47.740;7.606;2022-12-07T11:45:50;9.10;;;8.03;;
7501;SDS011;3792;47.740;7.606;2022-12-07T11:48:24;8.93;;;7.90;;
7501;SDS011;3792;47.740;7.606;2022-12-07T11:51:00;8.83;;;7.47;;
7501;SDS011;3792;47.740;7.606;2022-12-07T11:53:30;10.33;;;8.53;;
7501;SDS011;3792;47.740;7.606;2022-12-07T11:56:02;9.27;;;7.63;;
7501;SDS011;3792;47.740;7.606;2022-12-07T11:58:37;7.53;;;6.53;;
7501;SDS011;3792;47.740;7.606;2022-12-07T12:01:19;7.50;;;6.67;;
7501;SDS011;3792;47.740;7.606;2022-12-07T12:03:56;9.03;;;7.53;;
7501;SDS011;3792;47.740;7.606;2022-12-07T12:06:30;7.40;;;6.37;;
7501;SDS011;3792;47.740;7.606;2022-12-07T12:09:01;7.63;;;6.93;;
7501;SDS011;3792;47.740;7.606;2022-12-07T12:11:37;7.67;;;6.37;;
7501;SDS011;3792;47.740;7.606;2022-12-07T12:14:22;12.77;;;8.50;;
7501;SDS011;3792;47.740;7.606;2022-12-07T12:20:00;7.53;;;6.20;;
7501;SDS011;3792;47.740;7.606;2022-12-07T12:22:35;6.03;;;5.37;;
7501;SDS011;3792;47.740;7.606;2022-12-07T12:25:06;7.20;;;6.60;;
7501;SDS011;3792;47.740;7.606;2022-12-07T12:27:46;8.00;;;7.20;;
7501;SDS011;3792;47.740;7.606;2022-12-07T12:30:24;9.53;;;7.17;;
7501;SDS011;3792;47.740;7.606;2022-12-07T12:33:00;6.40;;;5.80;;
7501;SDS011;3792;47.740;7.606;2022-12-07T12:35:30;5.73;;;4.43;;
7501;SDS011;3792;47.740;7.606;2022-12-07T12:41:00;4.60;;;4.20;;
7501;SDS011;3792;47.740;7.606;2022-12-07T12:43:44;4.50;;;4.10;;
7501;SDS011;3792;47.740;7.606;2022-12-07T12:55:18;7.60;;;5.37;;
7501;SDS011;3792;47.740;7.606;2022-12-07T13:04:18;5.40;;;4.27;;
7501;SDS011;3792;47.740;7.606;2022-12-07T13:07:04;4.70;;;4.30;;
7501;SDS011;3792;47.740;7.606;2022-12-07T13:09:35;4.57;;;4.17;;
7501;SDS011;3792;47.740;7.606;2022-12-07T13:12:05;5.37;;;4.23;;
7501;SDS011;3792;47.740;7.606;2022-12-07T13:14:41;3.93;;;3.60;;
7501;SDS011;3792;47.740;7.606;2022-12-07T13:23:20;5.83;;;4.13;;
7501;SDS011;3792;47.740;7.606;2022-12-07T13:26:12;5.13;;;4.30;;
7501;SDS011;3792;47.740;7.606;2022-12-07T13:28:44;4.30;;;3.90;;
7501;SDS011;3792;47.740;7.606;2022-12-07T13:31:14;4.10;;;3.63;;
7501;SDS011;3792;47.740;7.606;2022-12-07T13:33:53;4.40;;;3.60;;
7501;SDS011;3792;47.740;7.606;2022-12-07T13:36:21;4.30;;;3.63;;
7501;SDS011;3792;47.740;7.606;2022-12-07T13:38:50;4.30;;;3.90;;
7501;SDS011;3792;47.740;7.606;2022-12-07T13:41:20;4.37;;;3.67;;
7501;SDS011;3792;47.740;7.606;2022-12-07T13:43:52;4.40;;;4.00;;
7501;SDS011;3792;47.740;7.606;2022-12-07T13:46:24;4.27;;;3.70;;
7501;SDS011;3792;47.740;7.606;2022-12-07T13:48:57;4.07;;;3.57;;
7501;SDS011;3792;47.740;7.606;2022-12-07T13:51:25;3.83;;;3.53;;
7501;SDS011;3792;47.740;7.606;2022-12-07T13:53:54;7.10;;;4.10;;
7501;SDS011;3792;47.740;7.606;2022-12-07T13:56:26;3.77;;;3.47;;
7501;SDS011;3792;47.740;7.606;2022-12-07T13:58:59;3.50;;;3.20;;
7501;SDS011;3792;47.740;7.606;2022-12-07T14:01:26;4.07;;;3.73;;
7501;SDS011;3792;47.740;7.606;2022-12-07T14:03:54;3.60;;;3.30;;
7501;SDS011;3792;47.740;7.606;2022-12-07T14:06:23;5.20;;;3.90;;
7501;SDS011;3792;47.740;7.606;2022-12-07T14:09:07;4.97;;;3.60;;
7501;SDS011;3792;47.740;7.606;2022-12-07T14:11:35;3.67;;;3.17;;
7501;SDS011;3792;47.740;7.606;2022-12-07T14:14:05;4.07;;;2.80;;
7501;SDS011;3792;47.740;7.606;2022-12-07T14:16:37;3.27;;;3.03;;
7501;SDS011;3792;47.740;7.606;2022-12-07T14:19:05;3.33;;;3.03;;
7501;SDS011;3792;47.740;7.606;2022-12-07T14:22:05;6.53;;;3.03;;
7501;SDS011;3792;47.740;7.606;2022-12-07T14:24:40;3.20;;;3.00;;
7501;SDS011;3792;47.740;7.606;2022-12-07T14:27:16;4.83;;;3.70;;
7501;SDS011;3792;47.740;7.606;2022-12-07T14:29:46;4.03;;;3.67;;
7501;SDS011;3792;47.740;7.606;2022-12-07T14:32:21;8.30;;;6.43;;
7501;SDS011;3792;47.740;7.606;2022-12-07T14:34:54;9.43;;;6.33;;
7501;SDS011;3792;47.740;7.606;2022-12-07T14:37:22;18.27;;;12.10;;
7501;SDS011;3792;47.740;7.606;2022-12-07T14:39:50;15.50;;;9.57;;
7501;SDS011;3792;47.740;7.606;2022-12-07T14:42:17;9.80;;;6.93;;
7501;SDS011;3792;47.740;7.606;2022-12-07T14:44:46;7.83;;;5.47;;
7501;SDS011;3792;47.740;7.606;2022-12-07T14:47:13;4.77;;;4.33;;
7501;SDS011;3792;47.740;7.606;2022-12-07T14:49:40;5.53;;;3.93;;
7501;SDS011;3792;47.740;7.606;2022-12-07T14:52:09;10.87;;;4.90;;
7501;SDS011;3792;47.740;7.606;2022-12-07T14:54:41;7.03;;;5.23;;
7501;SDS011;3792;47.740;7.606;2022-12-07T14:57:09;7.57;;;5.47;;
7501;SDS011;3792;47.740;7.606;2022-12-07T14:59:36;6.13;;;4.37;;
7501;SDS011;3792;47.740;7.606;2022-12-07T15:02:05;5.80;;;5.20;;
7501;SDS011;3792;47.740;7.606;2022-12-07T15:04:33;5.57;;;4.80;;
7501;SDS011;3792;47.740;7.606;2022-12-07T15:07:02;10.93;;;7.40;;
7501;SDS011;3792;47.740;7.606;2022-12-07T15:09:30;7.37;;;5.07;;
7501;SDS011;3792;47.740;7.606;2022-12-07T15:11:58;4.50;;;4.10;;
7501;SDS011;3792;47.740;7.606;2022-12-07T15:14:25;6.10;;;4.07;;
7501;SDS011;3792;47.740;7.606;2022-12-07T15:16:52;4.13;;;3.20;;
7501;SDS011;3792;47.740;7.606;2022-12-07T15:19:21;8.97;;;5.67;;
7501;SDS011;3792;47.740;7.606;2022-12-07T15:21:51;6.97;;;4.50;;
7501;SDS011;3792;47.740;7.606;2022-12-07T15:24:18;4.73;;;3.97;;
7501;SDS011;3792;47.740;7.606;2022-12-07T15:26:47;4.30;;;3.90;;
7501;SDS011;3792;47.740;7.606;2022-12-07T15:29:14;4.23;;;3.17;;
7501;SDS011;3792;47.740;7.606;2022-12-07T15:31:42;4.37;;;3.97;;
7501;SDS011;3792;47.740;7.606;2022-12-07T15:34:10;3.93;;;3.27;;
7501;SDS011;3792;47.740;7.606;2022-12-07T15:36:39;2.87;;;2.57;;
7501;SDS011;3792;47.740;7.606;2022-12-07T15:39:06;3.50;;;2.70;;
7501;SDS011;3792;47.740;7.606;2022-12-07T15:41:34;6.60;;;5.30;;
7501;SDS011;3792;47.740;7.606;2022-12-07T15:44:02;16.10;;;11.17;;
7501;SDS011;3792;47.740;7.606;2022-12-07T15:46:46;13.07;;;8.47;;
7501;SDS011;3792;47.740;7.606;2022-12-07T15:49:14;11.83;;;6.80;;
7501;SDS011;3792;47.740;7.606;2022-12-07T15:51:45;10.33;;;7.53;;
7501;SDS011;3792;47.740;7.606;2022-12-07T15:54:19;11.63;;;8.17;;